Time;durP1;ratioP1;P1;durP2;ratioP2;P2;SDS_P1;SDS_P2;PMS_P1;PMS_P2;Temp;Humidity;BMP_temperature;BMP_pressure;BME280_temperature;BME280_humidity;BME280_pressure;Samples;Min_cycle;Max_cycle;Signal;HPM_P1;HPM_P2
2022/06/10 00:00:40;;;;;;;16.45;12.45;;;;;;;20.77;72.16;100887.41;5052365;28;20049;-53
2022/06/10 00:03:08;;;;;;;16.70;12.43;;;;;;;20.77;72.16;100890.03;5052414;28;20053;-51
2022/06/10 00:05:36;;;;;;;15.63;11.27;;;;;;;20.76;72.13;100890.97;5052079;28;20053;-51
2022/06/10 00:08:05;;;;;;;13.93;11.50;;;;;;;20.76;71.87;100882.22;5067493;28;20052;-52
2022/06/10 00:10:32;;;;;;;18.35;13.18;;;;;;;20.74;71.75;100884.94;5072145;28;20052;-49
2022/06/10 00:12:59;;;;;;;15.32;12.38;;;;;;;20.72;71.74;100885.94;5072491;28;20118;-49
2022/06/10 00:15:26;;;;;;;14.93;11.95;;;;;;;20.69;71.51;100892.19;5071811;28;20464;-48
2022/06/10 00:17:55;;;;;;;16.10;11.50;;;;;;;20.69;71.64;100884.28;5072373;28;20052;-48
2022/06/10 00:20:27;;;;;;;15.52;11.68;;;;;;;20.69;71.72;100886.06;5072238;28;20076;-48
2022/06/10 00:22:55;;;;;;;13.88;11.25;;;;;;;20.68;71.54;100885.22;5072033;28;20063;-50
2022/06/10 00:25:23;;;;;;;14.07;11.25;;;;;;;20.71;71.38;100884.22;5072468;28;20420;-52
2022/06/10 00:27:50;;;;;;;14.60;12.07;;;;;;;20.72;71.39;100892.06;5059471;28;20068;-50
2022/06/10 00:30:19;;;;;;;12.05;10.68;;;;;;;20.69;71.33;100892.19;5056121;28;20045;-52
2022/06/10 00:32:46;;;;;;;16.23;12.80;;;;;;;20.68;71.41;100890.50;5055679;28;20381;-48
2022/06/10 00:35:15;;;;;;;14.32;10.68;;;;;;;20.66;71.31;100889.72;5056228;28;20045;-49
2022/06/10 00:37:45;;;;;;;14.25;10.93;;;;;;;20.66;71.40;100897.63;5056001;28;20053;-49
2022/06/10 00:40:15;;;;;;;15.00;12.23;;;;;;;20.65;71.20;100901.16;5055634;28;20393;-49
2022/06/10 00:42:42;;;;;;;15.38;11.55;;;;;;;20.63;71.35;100907.44;5055947;28;20110;-48
2022/06/10 00:45:41;;;;;;;16.10;11.63;;;;;;;20.64;71.47;100904.72;5063779;28;20098;-50
2022/06/10 00:48:11;;;;;;;13.30;10.48;;;;;;;20.64;71.68;100894.19;5075214;28;20056;-48
2022/06/10 00:50:40;;;;;;;15.98;12.52;;;;;;;20.67;71.68;100894.06;5075754;28;20123;-48
2022/06/10 00:53:11;;;;;;;14.82;11.60;;;;;;;20.65;71.50;100889.78;5075432;28;20045;-48
2022/06/10 00:55:38;;;;;;;15.52;12.43;;;;;;;20.66;71.52;100892.34;5069067;28;20465;-48
2022/06/10 00:58:08;;;;;;;12.98;10.38;;;;;;;20.65;71.36;100885.38;5054665;28;20061;-48
2022/06/10 01:00:38;;;;;;;12.30;9.77;;;;;;;20.65;71.46;100890.63;5055043;28;20052;-50
2022/06/10 01:03:06;;;;;;;14.82;11.55;;;;;;;20.65;71.41;100893.28;5071686;28;20075;-51
2022/06/10 01:05:33;;;;;;;12.10;10.25;;;;;;;20.67;71.51;100899.31;5074989;28;20052;-49
2022/06/10 01:08:08;;;;;;;13.10;10.73;;;;;;;20.67;71.42;100899.31;5074755;28;20048;-50
2022/06/10 01:10:43;;;;;;;11.73;9.65;;;;;;;20.67;71.39;100899.31;5075017;28;20048;-49
2022/06/10 01:13:23;;;;;;;14.02;10.18;;;;;;;20.67;71.52;100894.06;5075231;28;20052;-51
2022/06/10 01:15:56;;;;;;;11.75;9.40;;;;;;;20.68;71.63;100894.91;5060391;28;20072;-49
2022/06/10 01:18:37;;;;;;;13.98;10.77;;;;;;;20.68;71.50;100906.28;5055050;28;20409;-51
2022/06/10 01:21:25;;;;;;;13.57;10.60;;;;;;;20.64;71.47;100901.25;5054806;28;20445;-51
2022/06/10 01:24:12;;;;;;;11.18;9.02;;;;;;;20.62;71.57;100905.72;5054933;28;20484;-50
2022/06/10 01:30:08;;;;;;;;;;;;;;;20.54;71.65;100902.59;5055195;28;20063;-52
2022/06/10 01:32:47;;;;;;;11.35;9.00;;;;;;;20.56;71.53;100901.63;5055247;28;19936;-50
2022/06/10 01:35:20;;;;;;;11.60;8.20;;;;;;;20.57;71.76;100903.31;5055037;28;20138;-48
2022/06/10 01:37:58;;;;;;;13.10;9.27;;;;;;;20.58;71.68;100909.44;5054108;28;20049;-50
2022/06/10 01:40:35;;;;;;;10.63;9.20;;;;;;;20.57;71.74;100902.47;5054444;28;20591;-48
2022/06/10 01:43:10;;;;;;;11.43;8.98;;;;;;;20.56;71.85;100901.63;5054740;28;20060;-50
2022/06/10 01:45:42;;;;;;;10.63;8.75;;;;;;;20.55;71.79;100897.28;5070134;28;20109;-50
2022/06/10 01:48:16;;;;;;;13.65;10.68;;;;;;;20.54;71.79;100906.09;5074555;28;20109;-50
2022/06/10 01:50:48;;;;;;;9.90;7.88;;;;;;;20.52;71.79;100905.31;5074587;28;20048;-49
2022/06/10 01:53:23;;;;;;;12.27;10.05;;;;;;;20.48;71.75;100909.88;5074226;28;20056;-53
2022/06/10 01:55:56;;;;;;;12.32;9.15;;;;;;;20.41;72.08;100913.72;5067116;28;20110;-52
2022/06/10 01:58:27;;;;;;;10.80;8.57;;;;;;;20.39;72.14;100914.69;5054603;28;20053;-50
2022/06/10 02:01:01;;;;;;;13.57;7.28;;;;;;;20.38;72.04;100919.09;5054468;28;20045;-49
2022/06/10 02:03:35;;;;;;;11.13;8.55;;;;;;;20.34;72.29;100922.78;5074069;28;20473;-50
2022/06/10 02:06:07;;;;;;;11.57;7.90;;;;;;;20.31;72.25;100922.09;5074108;28;20048;-49
2022/06/10 02:08:38;;;;;;;9.75;7.32;;;;;;;20.26;72.49;100913.50;5073897;28;20374;-49
2022/06/10 02:11:09;;;;;;;10.32;7.85;;;;;;;20.22;72.29;100922.47;5074250;28;20052;-50
2022/06/10 02:13:41;;;;;;;9.77;7.22;;;;;;;20.14;72.67;100920.19;5073814;28;20404;-49
2022/06/10 02:16:12;;;;;;;15.10;8.82;;;;;;;20.07;72.97;100924.88;5056725;28;20059;-49
2022/06/10 02:18:44;;;;;;;12.10;8.85;;;;;;;19.99;73.19;100927.00;5053238;28;20136;-52
2022/06/10 02:21:15;;;;;;;10.35;7.80;;;;;;;19.92;73.47;100924.72;5053672;28;20095;-51
2022/06/10 02:23:49;;;;;;;9.48;7.65;;;;;;;19.83;73.58;100920.72;5053211;28;20111;-50
2022/06/10 02:26:18;;;;;;;10.95;7.18;;;;;;;19.81;73.65;100927.81;5053392;28;20071;-50
2022/06/10 02:28:52;;;;;;;9.45;7.45;;;;;;;19.78;73.92;100923.53;5053225;28;20122;-51
2022/06/10 02:31:25;;;;;;;9.55;6.78;;;;;;;19.75;73.75;100926.28;5053147;28;20118;-50
2022/06/10 02:33:54;;;;;;;8.05;6.10;;;;;;;19.71;73.77;100931.72;5053301;28;20064;-51
2022/06/10 02:36:25;;;;;;;8.20;6.25;;;;;;;19.72;73.93;100928.19;5053167;28;20180;-53
2022/06/10 02:39:01;;;;;;;9.40;6.18;;;;;;;19.73;73.83;100929.88;5053012;28;20052;-51
2022/06/10 02:41:36;;;;;;;8.82;6.00;;;;;;;19.72;73.98;100922.91;5065486;28;20047;-50
2022/06/10 02:44:11;;;;;;;7.97;5.85;;;;;;;19.71;73.91;100926.47;5059150;28;20136;-54
2022/06/10 02:46:50;;;;;;;8.60;6.10;;;;;;;19.72;73.83;100928.19;5053051;28;20412;-52
2022/06/10 02:49:20;;;;;;;11.35;7.97;;;;;;;19.73;74.12;100925.47;5052752;28;20106;-52
2022/06/10 02:51:48;;;;;;;11.50;6.30;;;;;;;19.72;74.00;100922.91;5052649;28;20143;-51
2022/06/10 02:54:19;;;;;;;13.15;7.93;;;;;;;19.74;74.02;100926.34;5052459;28;20053;-53
2022/06/10 02:56:47;;;;;;;9.90;7.95;;;;;;;19.72;74.46;100928.19;5068195;28;20052;-51
2022/06/10 03:02:19;;;;;;;12.50;9.60;;;;;;;19.70;74.45;100933.50;5073326;28;20524;-52
2022/06/10 03:05:01;;;;;;;12.85;9.00;;;;;;;19.67;74.71;100923.13;5073179;28;20550;-51
2022/06/10 03:07:44;;;;;;;18.27;11.48;;;;;;;19.67;74.83;100927.53;5072938;28;20400;-50
2022/06/10 03:10:20;;;;;;;15.98;12.00;;;;;;;19.64;75.18;100925.03;5072744;28;20059;-50
2022/06/10 03:13:08;;;;;;;16.83;12.88;;;;;;;19.62;75.30;100932.97;5072539;28;20110;-50
2022/06/10 03:15:48;;;;;;;17.23;13.52;;;;;;;19.60;75.58;100936.59;5069777;28;20139;-50
2022/06/10 03:18:27;;;;;;;24.40;15.93;;;;;;;19.57;75.59;100928.84;5073529;28;20125;-50
2022/06/10 03:21:06;;;;;;;24.45;16.92;;;;;;;19.50;76.05;100939.59;5073073;28;20040;-50
2022/06/10 03:23:45;;;;;;;21.52;15.40;;;;;;;19.45;76.26;100931.03;5073351;28;20109;-50
2022/06/10 03:26:18;;;;;;;20.58;15.15;;;;;;;19.45;76.28;100936.28;5072874;28;20052;-50
2022/06/10 03:28:51;;;;;;;23.88;16.85;;;;;;;19.47;76.51;100938.84;5072795;28;20056;-50
2022/06/10 03:31:27;;;;;;;27.45;19.98;;;;;;;19.45;76.45;100943.31;5072747;28;20376;-50
2022/06/10 03:34:02;;;;;;;28.02;18.00;;;;;;;19.44;76.53;100934.59;5072776;28;20376;-50
2022/06/10 03:36:32;;;;;;;29.67;20.73;;;;;;;19.44;76.98;100939.00;5072543;28;20057;-50
2022/06/10 03:39:01;;;;;;;22.77;16.35;;;;;;;19.45;76.76;100945.97;5071919;28;20056;-50
2022/06/10 03:41:31;;;;;;;27.65;18.83;;;;;;;19.45;76.84;100952.06;5072651;28;20045;-50
2022/06/10 03:43:59;;;;;;;24.23;16.08;;;;;;;19.48;76.82;100956.34;5072476;28;20110;-49
2022/06/10 03:46:31;;;;;;;21.85;15.27;;;;;;;19.51;76.89;100961.47;5072855;28;20052;-50
2022/06/10 03:49:02;;;;;;;24.42;17.25;;;;;;;19.54;76.80;100964.00;5072502;28;20625;-50
2022/06/10 03:51:32;;;;;;;23.70;15.13;;;;;;;19.54;76.66;100962.22;5072774;28;20147;-50
2022/06/10 03:53:59;;;;;;;22.50;16.30;;;;;;;19.53;76.75;100971.03;5072576;28;20060;-52
2022/06/10 03:56:26;;;;;;;22.58;16.15;;;;;;;19.53;76.65;100976.28;5060076;28;20052;-49
2022/06/10 03:58:53;;;;;;;23.73;15.57;;;;;;;19.54;76.76;100978.00;5067481;28;20052;-54
2022/06/10 04:01:20;;;;;;;26.05;16.52;;;;;;;19.55;76.78;100978.88;5070794;28;20059;-50
2022/06/10 04:03:47;;;;;;;25.98;17.83;;;;;;;19.53;76.84;100978.94;5056939;28;20056;-50
2022/06/10 04:06:15;;;;;;;24.77;16.67;;;;;;;19.52;76.98;100968.44;5056981;28;20503;-51
2022/06/10 04:08:44;;;;;;;25.08;15.25;;;;;;;19.50;76.98;100981.66;5076876;28;20044;-50
2022/06/10 04:11:10;;;;;;;24.65;15.38;;;;;;;19.52;77.06;100990.38;5076494;28;20053;-50
2022/06/10 04:13:39;;;;;;;30.58;19.75;;;;;;;19.52;76.96;100987.72;5076749;28;20114;-52
2022/06/10 04:16:10;;;;;;;25.67;16.85;;;;;;;19.54;76.96;100993.78;5076507;28;20114;-53
2022/06/10 04:18:38;;;;;;;26.88;17.92;;;;;;;19.51;76.78;101004.41;5076401;28;20057;-51
2022/06/10 04:21:05;;;;;;;28.65;19.10;;;;;;;19.52;76.75;101000.88;5076225;28;20161;-53
2022/06/10 04:23:32;;;;;;;27.00;16.70;;;;;;;19.54;76.83;100998.19;5076430;28;20612;-53
2022/06/10 04:26:00;;;;;;;24.88;16.63;;;;;;;19.56;76.52;101000.75;5076351;28;20048;-50
2022/06/10 04:28:27;;;;;;;26.67;17.17;;;;;;;19.53;76.50;101007.84;5075920;28;20056;-51
2022/06/10 04:30:55;;;;;;;28.75;18.35;;;;;;;19.52;76.31;101005.25;5076375;28;20056;-54
2022/06/10 04:33:26;;;;;;;26.25;16.35;;;;;;;19.50;76.20;101010.56;5067110;28;20060;-50
2022/06/10 04:35:53;;;;;;;25.50;17.25;;;;;;;19.49;76.19;101016.75;5066902;28;20393;-50
2022/06/10 04:38:27;;;;;;;24.63;16.02;;;;;;;19.49;75.90;101010.63;5069094;28;20436;-50
2022/06/10 04:40:55;;;;;;;28.02;17.70;;;;;;;19.47;76.09;101013.31;5058341;28;20535;-51
2022/06/10 04:43:25;;;;;;;30.92;19.60;;;;;;;19.49;75.89;101022.00;5058619;28;20728;-50
2022/06/10 04:45:54;;;;;;;30.15;17.95;;;;;;;19.47;75.93;101023.84;5073193;28;20060;-50
2022/06/10 04:48:21;;;;;;;34.28;21.13;;;;;;;19.45;75.84;101020.41;5075873;28;20114;-52
2022/06/10 04:50:48;;;;;;;33.70;20.40;;;;;;;19.44;75.84;101023.97;5075854;28;20048;-50
2022/06/10 04:53:17;;;;;;;31.20;19.13;;;;;;;19.42;75.65;101027.56;5075578;28;20056;-53
2022/06/10 04:55:44;;;;;;;29.48;17.98;;;;;;;19.42;75.72;101030.22;5068904;28;20110;-50
2022/06/10 04:58:11;;;;;;;34.85;20.58;;;;;;;19.41;75.72;101034.59;5055616;28;20045;-49
2022/06/10 05:00:45;;;;;;;30.60;19.33;;;;;;;19.39;75.52;101036.44;5055339;28;20557;-51
2022/06/10 05:03:12;;;;;;;28.80;19.10;;;;;;;19.36;75.66;101026.06;5073125;28;20380;-51
2022/06/10 05:05:39;;;;;;;29.52;18.10;;;;;;;19.36;75.54;101041.81;5075551;28;20428;-50
2022/06/10 05:08:09;;;;;;;34.05;21.85;;;;;;;19.36;75.33;101041.81;5069430;28;20109;-49
2022/06/10 05:10:38;;;;;;;29.35;19.60;;;;;;;19.33;75.30;101041.09;5069050;28;20057;-50
2022/06/10 05:13:05;;;;;;;27.50;17.73;;;;;;;19.26;75.33;101037.00;5054560;28;20057;-50
2022/06/10 05:15:36;;;;;;;24.42;16.60;;;;;;;19.25;75.52;101044.03;5054318;28;20056;-50
2022/06/10 05:18:05;;;;;;;23.20;14.90;;;;;;;19.27;75.43;101051.84;5065620;28;20428;-53
2022/06/10 05:20:36;;;;;;;22.13;15.73;;;;;;;19.29;75.52;101056.13;5055374;28;20139;-49
2022/06/10 05:23:04;;;;;;;24.52;16.15;;;;;;;19.31;75.36;101061.31;5075251;28;20084;-53
2022/06/10 05:25:31;;;;;;;25.02;16.08;;;;;;;19.31;75.28;101069.22;5074827;28;20080;-49
2022/06/10 05:27:58;;;;;;;23.55;15.88;;;;;;;19.30;75.37;101068.34;5074665;28;20060;-49
2022/06/10 05:30:27;;;;;;;24.13;16.58;;;;;;;19.30;75.30;101070.97;5065877;28;20061;-49
2022/06/10 05:32:54;;;;;;;27.50;17.70;;;;;;;19.30;75.39;101078.00;5055210;28;20048;-49
2022/06/10 05:35:22;;;;;;;28.42;17.33;;;;;;;19.34;75.47;101085.72;5074828;28;20044;-50
2022/06/10 05:37:50;;;;;;;22.73;15.88;;;;;;;19.38;75.49;101087.31;5074797;28;20059;-50
2022/06/10 05:40:20;;;;;;;23.45;15.43;;;;;;;19.43;75.37;101085.34;5072570;28;20121;-52
2022/06/10 05:42:46;;;;;;;22.38;14.75;;;;;;;19.47;75.14;101089.56;5063673;28;20096;-49
2022/06/10 05:45:17;;;;;;;23.52;16.80;;;;;;;19.51;75.17;101091.16;5074416;28;20059;-51
2022/06/10 05:47:45;;;;;;;24.90;17.30;;;;;;;19.51;74.97;101092.94;5060288;28;20089;-49
2022/06/10 05:50:15;;;;;;;21.55;15.32;;;;;;;19.49;74.82;101095.63;5058492;28;20430;-50
2022/06/10 05:52:44;;;;;;;25.77;16.73;;;;;;;19.46;74.74;101098.38;5072610;28;20131;-51
2022/06/10 05:55:12;;;;;;;20.50;14.50;;;;;;;19.45;74.81;101103.69;5072134;28;20465;-51
2022/06/10 05:57:39;;;;;;;21.55;15.63;;;;;;;19.44;74.42;101108.09;5072962;28;20048;-52
2022/06/10 06:00:08;;;;;;;21.50;15.00;;;;;;;19.44;74.35;101109.88;5070120;28;20485;-50
2022/06/10 06:02:35;;;;;;;22.05;15.65;;;;;;;19.46;74.40;101111.53;5070313;28;20060;-50
2022/06/10 06:05:02;;;;;;;17.77;12.65;;;;;;;19.47;74.12;101109.75;5072749;28;20060;-50
2022/06/10 06:07:31;;;;;;;27.10;14.73;;;;;;;19.48;74.15;101120.19;5070998;28;20087;-50
2022/06/10 06:09:59;;;;;;;32.72;13.85;;;;;;;19.51;74.03;101114.81;5073528;28;20049;-50
2022/06/10 06:12:26;;;;;;;16.88;12.10;;;;;;;19.54;74.05;101120.00;5073292;28;20059;-52
2022/06/10 06:14:53;;;;;;;21.27;13.00;;;;;;;19.58;73.92;101120.72;5074169;28;20048;-53
2022/06/10 06:17:23;;;;;;;22.83;13.60;;;;;;;19.61;73.84;101125.00;5074095;28;20051;-49
2022/06/10 06:19:50;;;;;;;22.65;13.85;;;;;;;19.64;73.72;101117.00;5073895;28;20374;-50
2022/06/10 06:22:18;;;;;;;14.35;11.38;;;;;;;19.65;73.49;101116.06;5073348;28;20128;-49
2022/06/10 06:24:45;;;;;;;16.23;11.07;;;;;;;19.67;73.43;101122.13;5073771;28;20067;-53
2022/06/10 06:27:16;;;;;;;13.98;10.45;;;;;;;19.69;73.25;101123.78;5073517;28;20056;-53
2022/06/10 06:29:47;;;;;;;14.07;10.07;;;;;;;19.72;73.19;101117.53;5073553;28;20589;-52
2022/06/10 06:32:14;;;;;;;13.07;9.48;;;;;;;19.73;72.95;101120.09;5073179;28;20060;-51
2022/06/10 06:34:41;;;;;;;11.10;8.20;;;;;;;19.76;72.58;101134.91;5068578;28;20064;-52
2022/06/10 06:37:14;;;;;;;11.40;9.07;;;;;;;19.78;72.42;101127.84;5072218;28;20056;-51
2022/06/10 06:39:42;;;;;;;11.50;9.05;;;;;;;19.79;72.10;101135.69;5073436;28;20079;-52
2022/06/10 06:42:11;;;;;;;9.25;7.82;;;;;;;19.79;71.99;101137.44;5072859;28;20063;-52
2022/06/10 06:44:40;;;;;;;10.75;6.68;;;;;;;19.85;71.88;101134.56;5072668;28;20052;-52
2022/06/10 06:47:12;;;;;;;11.02;7.28;;;;;;;19.89;71.58;101141.41;5073150;28;20366;-50
2022/06/10 06:49:40;;;;;;;8.38;6.10;;;;;;;19.94;71.64;101141.22;5072563;28;20508;-49
2022/06/10 06:52:08;;;;;;;11.88;7.05;;;;;;;19.98;71.50;101141.03;5072631;28;20123;-50
2022/06/10 06:54:37;;;;;;;13.85;7.25;;;;;;;20.02;71.34;101142.63;5072446;28;20059;-50
2022/06/10 06:57:04;;;;;;;8.52;5.50;;;;;;;20.10;71.38;101144.94;5072187;28;20044;-52
2022/06/10 06:59:31;;;;;;;10.07;5.53;;;;;;;20.16;71.06;101135.00;5072258;28;20053;-54
2022/06/10 07:01:59;;;;;;;10.68;6.68;;;;;;;20.20;70.55;101143.63;5072176;28;20040;-54
2022/06/10 07:04:26;;;;;;;8.75;5.85;;;;;;;20.18;70.31;101141.06;5071517;28;20130;-53
2022/06/10 07:06:53;;;;;;;8.25;4.95;;;;;;;20.26;70.32;101146.00;5075860;28;20044;-50
2022/06/10 07:09:20;;;;;;;6.60;4.63;;;;;;;20.35;70.18;101139.53;5072801;28;20135;-52
2022/06/10 07:11:47;;;;;;;8.32;4.45;;;;;;;20.43;69.87;101143.56;5073213;28;20056;-50
2022/06/10 07:14:14;;;;;;;11.27;6.30;;;;;;;20.50;69.58;101143.31;5071213;28;20048;-50
2022/06/10 07:16:42;;;;;;;10.38;5.38;;;;;;;20.61;69.05;101146.34;5067323;28;20725;-54
2022/06/10 07:19:11;;;;;;;7.65;4.13;;;;;;;20.73;68.98;101146.66;5072735;28;20468;-49
2022/06/10 07:21:38;;;;;;;8.63;5.00;;;;;;;20.91;68.86;101159.97;5071885;28;20127;-49
2022/06/10 07:24:06;;;;;;;5.63;4.00;;;;;;;21.04;68.23;101155.84;5072501;28;20060;-49
2022/06/10 07:26:33;;;;;;;6.25;3.72;;;;;;;21.19;67.88;101163.03;5072666;28;20060;-52
2022/06/10 07:29:00;;;;;;;8.77;3.95;;;;;;;21.31;67.66;101165.16;5071890;28;20052;-51
2022/06/10 07:31:31;;;;;;;5.78;3.83;;;;;;;21.44;67.58;101172.53;5072051;28;20060;-52
2022/06/10 07:33:58;;;;;;;4.55;3.42;;;;;;;21.53;67.29;101161.53;5071884;28;20455;-52
2022/06/10 07:36:27;;;;;;;9.20;4.75;;;;;;;21.58;66.76;101168.31;5071430;28;20053;-53
2022/06/10 07:38:57;;;;;;;11.38;4.80;;;;;;;21.65;66.77;101174.16;5071385;28;20129;-49
2022/06/10 07:44:08;;;;;;;7.15;3.25;;;;;;;21.80;66.38;101177.81;5066844;28;20202;-51
2022/06/10 07:46:37;;;;;;;9.18;3.55;;;;;;;21.87;66.24;101179.28;5065798;28;20064;-52
2022/06/10 07:49:05;;;;;;;4.82;3.35;;;;;;;21.89;65.77;101182.69;5071754;28;20469;-51
2022/06/10 07:51:35;;;;;;;9.00;3.22;;;;;;;21.92;65.36;101178.13;5071817;28;20056;-52
2022/06/10 07:54:02;;;;;;;7.55;4.05;;;;;;;21.96;65.37;101192.88;5071582;28;20052;-52
2022/06/10 07:56:28;;;;;;;10.90;3.90;;;;;;;22.00;64.94;101180.38;5063982;28;20044;-50
2022/06/10 07:58:58;;;;;;;8.63;3.80;;;;;;;22.06;64.68;101187.19;5071095;28;20075;-51
2022/06/10 08:01:25;;;;;;;7.05;3.97;;;;;;;22.13;64.40;101193.88;5068548;28;20056;-52
2022/06/10 08:03:53;;;;;;;9.98;4.30;;;;;;;22.20;64.48;101192.63;5059617;28;20454;-54
2022/06/10 08:06:21;;;;;;;8.02;3.40;;;;;;;22.32;64.36;101195.50;5072065;28;20056;-54
2022/06/10 08:08:50;;;;;;;5.13;3.88;;;;;;;22.35;64.10;101202.44;5071977;28;20234;-54
2022/06/10 08:11:20;;;;;;;9.60;3.47;;;;;;;22.40;63.85;101195.16;5071570;28;20500;-51
2022/06/10 08:13:47;;;;;;;11.65;3.88;;;;;;;22.39;63.45;101198.72;5072107;28;20044;-53
2022/06/10 08:16:15;;;;;;;9.32;4.60;;;;;;;22.37;63.15;101203.19;5067443;28;20048;-51
2022/06/10 08:18:42;;;;;;;5.28;3.58;;;;;;;22.34;63.29;101206.00;5067276;28;20067;-50
2022/06/10 08:23:58;;;;;;;17.48;5.50;;;;;;;22.37;62.95;101211.13;5071523;28;20183;-48
2022/06/10 08:26:26;;;;;;;6.55;3.55;;;;;;;22.34;62.78;101217.41;5069796;28;20048;-50
2022/06/10 08:28:54;;;;;;;10.07;4.57;;;;;;;22.32;62.44;101223.72;5067591;28;20063;-50
2022/06/10 08:31:22;;;;;;;10.55;3.60;;;;;;;22.18;62.65;101220.91;5055074;28;20056;-50
2022/06/10 08:33:49;;;;;;;5.35;3.28;;;;;;;22.19;62.77;101227.88;5071688;28;20053;-51
2022/06/10 08:36:16;;;;;;;6.78;3.55;;;;;;;22.20;62.70;101229.59;5071425;28;20049;-52
2022/06/10 08:38:45;;;;;;;10.30;4.25;;;;;;;22.23;62.64;101238.22;5071222;28;20064;-52
2022/06/10 08:41:22;;;;;;;10.07;4.45;;;;;;;22.19;62.09;101233.16;5071507;28;20427;-51
2022/06/10 08:44:12;;;;;;;7.10;4.13;;;;;;;22.09;61.80;101230.13;5071757;28;20109;-55
2022/06/10 08:47:20;;;;;;;7.07;3.88;;;;;;;22.18;62.14;101242.03;5066488;28;20060;-55
2022/06/10 08:50:01;;;;;;;10.32;4.35;;;;;;;22.27;62.06;101246.84;5061121;28;20045;-51
2022/06/10 08:52:36;;;;;;;9.13;4.03;;;;;;;22.33;61.53;101243.91;5075626;28;20053;-50
2022/06/10 08:55:16;;;;;;;8.73;3.85;;;;;;;22.39;61.36;101254.19;5071460;28;20057;-54
2022/06/10 08:57:46;;;;;;;5.35;4.22;;;;;;;22.41;61.49;101260.25;5061972;28;20048;-51
2022/06/10 09:00:19;;;;;;;9.75;4.43;;;;;;;22.45;61.39;101260.97;5074748;28;20453;-52
2022/06/10 09:02:53;;;;;;;5.10;3.78;;;;;;;22.46;61.18;101263.53;5074558;28;20052;-50
2022/06/10 09:05:26;;;;;;;6.97;3.63;;;;;;;22.49;61.04;101273.94;5058170;28;20059;-51
2022/06/10 09:07:57;;;;;;;10.48;3.50;;;;;;;22.54;60.75;101264.00;5074666;28;20608;-51
2022/06/10 09:10:29;;;;;;;7.22;3.75;;;;;;;22.61;60.57;101273.31;5074300;28;20049;-54
2022/06/10 09:13:12;;;;;;;14.82;4.20;;;;;;;22.72;60.07;101264.00;5074470;28;20429;-51
2022/06/10 09:15:47;;;;;;;8.25;3.55;;;;;;;22.73;60.06;101278.94;5074063;28;20060;-51
2022/06/10 09:18:21;;;;;;;4.30;3.50;;;;;;;22.71;59.39;101289.56;5074564;28;20424;-55
2022/06/10 09:20:55;;;;;;;4.57;3.20;;;;;;;22.75;59.72;101277.06;5074516;28;20081;-54
2022/06/10 09:23:31;;;;;;;5.47;3.05;;;;;;;22.79;59.57;101281.25;5058285;28;20045;-51
2022/06/10 09:26:08;;;;;;;7.53;3.60;;;;;;;22.81;59.67;101295.28;5075139;28;20059;-51
2022/06/10 09:28:37;;;;;;;8.05;3.60;;;;;;;22.80;59.88;101298.81;5074796;28;20473;-51
2022/06/10 09:31:09;;;;;;;5.20;3.15;;;;;;;22.77;59.50;101305.13;5078015;28;20056;-51
2022/06/10 09:33:42;;;;;;;4.40;3.10;;;;;;;22.81;59.25;101303.22;5074038;28;20469;-52
2022/06/10 09:36:16;;;;;;;4.95;3.35;;;;;;;22.80;58.92;101294.44;5074196;28;20385;-50
2022/06/10 09:38:57;;;;;;;6.05;3.45;;;;;;;22.78;58.37;101316.53;5074386;28;20079;-51
2022/06/10 09:41:34;;;;;;;6.53;3.30;;;;;;;22.73;58.63;101308.00;5058057;28;20080;-50
2022/06/10 09:44:14;;;;;;;5.47;3.25;;;;;;;22.77;58.50;101309.56;5074384;28;20155;-50
2022/06/10 09:47:07;;;;;;;7.90;4.10;;;;;;;22.81;58.11;101319.06;5068273;28;20055;-50
2022/06/10 09:49:55;;;;;;;5.65;3.53;;;;;;;22.84;58.16;101308.34;5059179;28;20803;-51
2022/06/10 09:52:28;;;;;;;7.22;3.63;;;;;;;22.92;58.13;101314.97;5073697;28;20404;-50
2022/06/10 09:55:21;;;;;;;5.72;3.08;;;;;;;23.05;57.71;101319.63;5062903;28;20057;-51
2022/06/10 09:58:20;;;;;;;6.97;3.08;;;;;;;23.22;56.90;101323.13;5058421;28;20094;-51
2022/06/10 10:00:56;;;;;;;7.65;3.33;;;;;;;23.27;56.72;101315.81;5032829;28;20554;-50
2022/06/10 10:03:44;;;;;;;8.25;3.35;;;;;;;23.35;56.13;101317.19;5070438;28;20041;-51
2022/06/10 10:06:29;;;;;;;14.70;4.97;;;;;;;23.37;55.99;101320.59;5071211;28;20044;-50
2022/06/10 10:09:02;;;;;;;7.57;2.72;;;;;;;23.34;55.98;101320.78;5063331;28;20076;-51
2022/06/10 10:11:36;;;;;;;7.70;3.08;;;;;;;23.29;56.26;101319.22;5070432;28;20048;-51
2022/06/10 10:14:13;;;;;;;12.93;3.47;;;;;;;23.24;56.29;101325.69;5071816;28;20052;-52
2022/06/10 10:16:54;;;;;;;5.68;2.35;;;;;;;23.23;56.13;101323.97;5071763;28;20056;-50
2022/06/10 10:19:36;;;;;;;4.97;2.30;;;;;;;23.25;55.74;101328.25;5055777;28;20142;-51
2022/06/10 10:22:19;;;;;;;9.48;2.53;;;;;;;23.28;55.73;101338.66;5072551;28;20044;-51
2022/06/10 10:24:46;;;;;;;5.57;2.53;;;;;;;23.33;55.76;101332.28;5072490;28;20366;-53
2022/06/10 10:27:21;;;;;;;4.82;2.65;;;;;;;23.36;55.47;101337.41;5072093;28;20045;-50
2022/06/10 10:29:55;;;;;;;5.07;2.30;;;;;;;23.41;56.06;101338.91;5073045;28;20062;-53
2022/06/10 10:32:28;;;;;;;6.10;2.63;;;;;;;23.43;56.12;101346.78;5072597;28;20056;-50
2022/06/10 10:35:03;;;;;;;5.32;2.70;;;;;;;23.49;55.87;101341.16;5072241;28;20059;-55
2022/06/10 10:37:33;;;;;;;6.95;3.22;;;;;;;23.54;55.69;101339.97;5069571;28;20048;-51
2022/06/10 10:40:06;;;;;;;5.03;2.65;;;;;;;23.65;55.67;101349.16;5059825;28;20053;-51
2022/06/10 10:42:36;;;;;;;5.10;2.25;;;;;;;23.76;55.40;101334.41;5062277;28;20056;-50
2022/06/10 10:45:12;;;;;;;3.30;2.95;;;;;;;23.92;54.83;101331.78;5068223;28;20437;-51
2022/06/10 10:47:51;;;;;;;3.70;2.00;;;;;;;24.07;53.99;101333.63;5065470;28;20159;-51
2022/06/10 10:50:21;;;;;;;6.10;1.95;;;;;;;24.17;53.64;101333.97;5070470;28;20397;-50
2022/06/10 10:52:48;;;;;;;3.40;1.98;;;;;;;24.25;53.19;101337.03;5067733;28;20048;-50
2022/06/10 10:55:26;;;;;;;4.90;1.77;;;;;;;24.26;52.88;101328.16;5060526;28;20412;-52
2022/06/10 10:58:08;;;;;;;5.10;2.00;;;;;;;24.30;52.98;101329.72;5060336;28;20055;-51
2022/06/10 11:00:38;;;;;;;12.73;2.42;;;;;;;24.33;53.08;101337.50;5068858;28;20143;-52
2022/06/10 11:03:07;;;;;;;5.13;2.00;;;;;;;24.37;52.99;101336.38;5064955;28;20049;-54
2022/06/10 11:05:36;;;;;;;4.78;2.28;;;;;;;24.36;52.75;101339.97;5072138;28;20454;-51
2022/06/10 11:08:17;;;;;;;10.57;2.75;;;;;;;24.33;52.74;101334.84;5072198;28;20053;-53
2022/06/10 11:11:00;;;;;;;5.65;2.35;;;;;;;24.23;52.55;101341.56;5072243;28;20064;-52
2022/06/10 11:13:36;;;;;;;4.88;2.05;;;;;;;24.14;52.31;101344.72;5057303;28;20113;-51
2022/06/10 11:16:40;;;;;;;5.32;1.75;;;;;;;24.09;51.98;101341.47;5064992;28;20429;-54
2022/06/10 11:19:18;;;;;;;5.40;1.75;;;;;;;24.00;51.90;101344.63;5029071;28;20057;-51
2022/06/10 11:21:51;;;;;;;2.80;1.35;;;;;;;23.92;52.15;101352.97;5058875;28;20201;-53
2022/06/10 11:24:22;;;;;;;6.20;1.88;;;;;;;23.85;52.38;101349.81;5073003;28;20056;-54
2022/06/10 11:26:53;;;;;;;9.52;2.08;;;;;;;23.85;52.89;101349.81;5072963;28;20052;-54
2022/06/10 11:29:21;;;;;;;4.97;2.58;;;;;;;23.92;53.71;101356.47;5073150;28;20053;-52
2022/06/10 11:31:53;;;;;;;6.63;1.80;;;;;;;23.97;53.66;101368.63;5072376;28;20400;-51
2022/06/10 11:34:27;;;;;;;5.75;2.05;;;;;;;24.03;53.62;101349.75;5071875;28;20095;-51
2022/06/10 11:36:55;;;;;;;7.40;2.58;;;;;;;24.10;53.51;101364.38;5072002;28;20110;-53
2022/06/10 11:39:27;;;;;;;3.28;1.95;;;;;;;24.16;53.40;101353.44;5056108;28;20052;-52
2022/06/10 11:42:15;;;;;;;5.30;1.90;;;;;;;24.24;51.51;101361.81;5072263;28;20395;-53
2022/06/10 11:44:48;;;;;;;7.47;2.10;;;;;;;24.25;51.99;101368.81;5071644;28;20424;-54
2022/06/10 11:47:26;;;;;;;2.20;1.27;;;;;;;24.24;50.97;101372.41;5072079;28;20044;-53
2022/06/10 11:49:58;;;;;;;2.72;1.50;;;;;;;24.17;50.33;101373.69;5072304;28;20140;-51